Flight Track Log - Related Links

Times and Time Zones

All times are in EDT time to prevent confusion due to time zone crossing. See the AAY857 flight status page for this flight to view local times or setup timezone preferences in your user account.

Time Position Orientation Groundspeed Altitude Reporting Facility
EDT Latitude Longitude Course Direction KTS MPH feet Rate Location/Type
Sat 02:32:21 PM 41.6983 -86.2717 128° Southeast 174 200 2,200  Level Chicago Center
Sat 02:33:22 PM 41.6619 -86.2092 128° Southeast 222 255 3,800 2,195 Climbing Chicago Center
Sat 02:34:24 PM 41.6136 -86.1336 131° Southeast 258 297 6,700 2,516 Climbing Chicago Center
Sat 02:35:26 PM 41.5611 -86.0561 132° Southeast 278 320 9,000 2,081 Climbing Chicago Center
Sat 02:36:28 PM 41.5061 -85.9711 131° Southeast 301 346 11,000 2,177 Climbing Chicago Center
Sat 02:37:30 PM 41.4283 -85.8564 132° Southeast 350 403 13,500 2,129 Climbing Chicago Center
Sat 02:38:32 PM 41.3625 -85.7569 131° Southeast 360 414 15,400 1,742 Climbing Chicago Center
Sat 02:39:34 PM 41.2917 -85.6525 132° Southeast 376 433 17,100 2,032 Climbing Chicago Center
Sat 02:40:36 PM 41.2231 -85.5469 131° Southeast 382 440 19,600 1,984 Climbing Chicago Center
Sat 02:41:38 PM 41.1547 -85.4481 133° Southeast 370 426 21,200 1,694 Climbing Chicago Center
Sat 02:42:40 PM 41.0658 -85.3333 136° Southeast 373 429 23,100 1,597 Climbing Chicago Center
Sat 02:43:42 PM 40.9808 -85.2558 145° Southeast 375 432 24,500 1,171 Climbing Chicago Center
Sat 02:44:43 PM 40.8881 -85.1944 153° Southeast 375 432 25,500 1,073 Climbing Chicago Center
Sat 02:45:45 PM 40.7900 -85.1561 164° South 368 423 26,700 1,065 Climbing Chicago Center
Sat 02:46:47 PM 40.6903 -85.1139 162° South 371 427 27,700 897 Climbing Chicago Center
Sat 02:47:32 PM 40.6167 -85.0872 165° South 373 429 28,300 792 Climbing Indianapolis Center
Sat 02:48:33 PM 40.5136 -85.0456 163° South 381 438 29,100 732 Climbing Indianapolis Center
Sat 02:49:35 PM 40.4106 -85.0022 162° South 384 442 29,800 774 Climbing Indianapolis Center
Sat 02:50:37 PM 40.2831 -84.9522 163° South 393 452 30,700 585 Climbing Indianapolis Center
Sat 02:51:38 PM 40.1792 -84.9114 163° South 393 452 31,000 146 Climbing Indianapolis Center
Sat 02:52:40 PM 40.0889 -84.8744 163° South 380 437 31,000  Level Indianapolis Center
Sat 02:53:42 PM 39.9894 -84.8347 163° South 379 436 31,000  Level Indianapolis Center
Sat 02:54:43 PM 39.8686 -84.7875 163° South 379 436 31,000  Level Indianapolis Center
Sat 02:55:45 PM 39.7681 -84.7475 163° South 379 436 31,000  Level Indianapolis Center
Sat 02:56:47 PM 39.6686 -84.7078 163° South 379 436 31,000  Level Indianapolis Center
Sat 02:57:48 PM 39.5678 -84.6672 163° South 379 436 31,000  Level Indianapolis Center
Sat 02:58:50 PM 39.4672 -84.6278 163° South 379 436 31,000  Level Indianapolis Center
Sat 02:59:51 PM 39.3664 -84.5894 164° South 379 436 31,000  Level Indianapolis Center
Sat 03:00:53 PM 39.2469 -84.5428 163° South 379 436 31,000  Level Indianapolis Center
Sat 03:01:55 PM 39.1467 -84.5036 163° South 379 436 31,000  Level Indianapolis Center
Sat 03:02:56 PM 39.0456 -84.4647 163° South 379 436 31,000  Level Indianapolis Center
Sat 03:03:58 PM 38.9447 -84.4253 163° South 379 436 31,000  Level Indianapolis Center
Sat 03:05:00 PM 38.8433 -84.3867 163° South 379 436 31,000  Level Indianapolis Center
Sat 03:06:01 PM 38.7417 -84.3472 163° South 380 437 31,000  Level Indianapolis Center
Sat 03:07:03 PM 38.6361 -84.3081 164° South 381 438 31,000  Level Indianapolis Center
Sat 03:08:04 PM 38.5133 -84.2892 173° South 381 438 31,000  Level Indianapolis Center
Sat 03:09:06 PM 38.4064 -84.2750 174° South 382 440 31,000  Level Indianapolis Center
Sat 03:10:08 PM 38.3003 -84.2556 172° South 382 440 31,000  Level Indianapolis Center
Sat 03:11:09 PM 38.1922 -84.2403 174° South 386 444 31,000  Level Indianapolis Center
Sat 03:12:11 PM 38.0844 -84.2219 172° South 387 445 31,000  Level Indianapolis Center
Sat 03:13:13 PM 37.9756 -84.2056 173° South 389 448 31,000  Level Indianapolis Center
Sat 03:14:14 PM 37.8678 -84.1897 173° South 389 448 31,000  Level Indianapolis Center
Sat 03:15:16 PM 37.7414 -84.1706 173° South 389 448 31,000  Level Indianapolis Center
Sat 03:16:18 PM 37.6336 -84.1533 173° South 389 448 31,000  Level Indianapolis Center
Sat 03:17:19 PM 37.5261 -84.1372 173° South 389 448 31,000  Level Indianapolis Center
Sat 03:18:21 PM 37.4178 -84.1203 173° South 389 448 31,000 435 Level Indianapolis Center
Sat 03:19:23 PM 37.3106 -84.1050 174° South 389 448 31,900 829 Climbing Indianapolis Center
Sat 03:20:24 PM 37.2011 -84.0883 173° South 390 449 32,700 537 Climbing Indianapolis Center
Sat 03:21:26 PM 37.0722 -84.0689 173° South 395 455 33,000 145 Climbing Indianapolis Center
Sat 03:22:28 PM 36.9600 -84.0511 173° South 400 460 33,000  Level Indianapolis Center
Sat 03:23:29 PM 36.8483 -84.0350 173° South 401 461 33,000  Level Indianapolis Center
Sat 03:24:31 PM 36.7367 -84.0181 173° South 402 463 33,000  Level Indianapolis Center
Sat 03:25:33 PM 36.6250 -84.0019 173° South 402 463 33,000  Level Indianapolis Center
Sat 03:26:34 PM 36.4997 -83.9825 173° South 403 464 33,000  Level Indianapolis Center
Sat 03:27:36 PM 36.3844 -83.9658 173° South 409 471 33,000  Level Indianapolis Center
Sat 03:28:37 PM 36.2689 -83.9489 173° South 412 474 33,000  Level Indianapolis Center
Sat 03:29:39 PM 36.1539 -83.9317 173° South 412 474 33,000  Level Indianapolis Center
Sat 03:30:27 PM 36.0644 -83.9206 174° South 412 474 33,000  Level Atlanta Center
Sat 03:31:27 PM 35.9519 -83.9053 174° South 412 474 33,000  Level Atlanta Center
Sat 03:32:27 PM 35.8475 -83.9106 182° South 395 455 33,000  Level Atlanta Center
Sat 03:33:27 PM 35.7433 -83.9339 190° South 389 448 33,000  Level Atlanta Center
Sat 03:34:27 PM 35.6306 -83.9622 192° South 389 448 33,000  Level Atlanta Center
Sat 03:35:27 PM 35.5306 -83.9878 192° South 379 436 33,000  Level Atlanta Center
Sat 03:36:27 PM 35.4303 -84.0108 191° South 373 429 33,000  Level Atlanta Center
Sat 03:37:27 PM 35.3322 -84.0361 192° South 373 429 33,000  Level Atlanta Center
Sat 03:38:27 PM 35.2281 -84.0617 191° South 373 429 33,000  Level Atlanta Center
Sat 03:39:27 PM 35.1236 -84.0844 190° South 373 429 33,000  Level Atlanta Center
Sat 03:40:27 PM 35.0192 -84.1097 191° South 373 429 33,000  Level Atlanta Center
Sat 03:41:27 PM 34.9169 -84.1375 193° South 378 435 33,000  Level Atlanta Center
Sat 03:42:27 PM 34.8128 -84.1603 190° South 378 435 33,000  Level Atlanta Center
Sat 03:43:27 PM 34.7083 -84.1878 192° South 378 435 33,000  Level Atlanta Center
Sat 03:44:27 PM 34.6061 -84.2078 189° South 379 436 33,000  Level Atlanta Center
Sat 03:45:27 PM 34.4975 -84.2328 191° South 379 436 33,000  Level Atlanta Center
Sat 03:46:27 PM 34.3911 -84.2578 191° South 385 443 33,000  Level Atlanta Center
Sat 03:47:27 PM 34.2867 -84.2828 191° South 390 449 33,000  Level Atlanta Center
Sat 03:48:27 PM 34.1822 -84.3075 191° South 390 449 33,000  Level Atlanta Center
Sat 03:49:27 PM 34.0839 -84.3297 191° South 390 449 33,000  Level Atlanta Center
Sat 03:50:27 PM 33.9733 -84.3569 192° South 390 449 33,000  Level Atlanta Center
Sat 03:51:27 PM 33.8669 -84.3814 191° South 390 449 33,000  Level Atlanta Center
Sat 03:52:27 PM 33.7583 -84.4061 191° South 390 449 33,000  Level Atlanta Center
Sat 03:53:27 PM 33.6558 -84.4306 191° South 384 442 33,000  Level Atlanta Center
Sat 03:54:27 PM 33.5453 -84.4375 183° South 400 460 33,000  Level Atlanta Center
Sat 03:55:27 PM 33.4347 -84.4372 180° South 400 460 33,000  Level Atlanta Center
Sat 03:56:27 PM 33.3239 -84.4342 179° South 400 460 33,000  Level Atlanta Center
Sat 03:57:27 PM 33.2156 -84.4336 180° South 400 460 33,000  Level Atlanta Center
Sat 03:58:27 PM 33.1069 -84.4281 178° South 400 460 33,000  Level Atlanta Center
Sat 03:59:27 PM 33.0089 -84.4278 180° South 400 460 33,000  Level Atlanta Center
Sat 04:00:27 PM 32.8981 -84.4272 180° South 400 460 33,000  Level Atlanta Center
Sat 04:01:27 PM 32.7917 -84.4267 180° South 400 460 33,000  Level Atlanta Center
Sat 04:02:27 PM 32.6811 -84.4189 177° South 400 460 33,000  Level Atlanta Center
Sat 04:03:28 PM 32.5706 -84.4158 179° South 400 460 33,000  Level Atlanta Center
Sat 04:04:27 PM 32.4600 -84.4131 179° South 400 460 33,000  Level Atlanta Center
Sat 04:05:27 PM 32.3492 -84.4100 179° South 400 460 33,000  Level Atlanta Center
Sat 04:06:27 PM 32.2367 -84.4097 180° South 400 460 33,000  Level Atlanta Center
Sat 04:07:27 PM 32.1258 -84.4067 179° South 398 458 33,000  Level Atlanta Center
Sat 04:08:27 PM 32.0133 -84.4039 179° South 398 458 33,000  Level Atlanta Center
Sat 04:09:27 PM 31.8983 -84.4033 180° South 410 472 33,000  Level Atlanta Center
Sat 04:09:58 PM 31.8278 -84.3989 177° South 409 471 33,000  Level Jacksonville Center
Sat 04:10:58 PM 31.7150 -84.3994 180° South 409 471 33,000  Level Jacksonville Center
Sat 04:11:58 PM 31.6022 -84.3953 178° South 409 471 33,000  Level Jacksonville Center
Sat 04:12:58 PM 31.4875 -84.3933 179° South 409 471 33,000  Level Jacksonville Center
Sat 04:13:58 PM 31.3725 -84.3914 179° South 409 471 33,000  Level Jacksonville Center
Sat 04:14:58 PM 31.2600 -84.3897 179° South 409 471 33,000  Level Jacksonville Center
Sat 04:15:58 PM 31.1431 -84.3853 178° South 409 471 33,000  Level Jacksonville Center
Sat 04:16:58 PM 31.0283 -84.3836 179° South 409 471 33,000  Level Jacksonville Center
Sat 04:17:58 PM 30.9114 -84.3817 179° South 409 471 33,000  Level Jacksonville Center
Sat 04:18:58 PM 30.7944 -84.3800 179° South 419 482 33,000  Level Jacksonville Center
Sat 04:19:58 PM 30.6756 -84.3781 179° South 419 482 33,000  Level Jacksonville Center
Sat 04:20:58 PM 30.5586 -84.3714 177° South 419 482 33,000 -50 Level Jacksonville Center
Sat 04:21:58 PM 30.4444 -84.3044 153° Southeast 433 498 32,900 -250 Descending Jacksonville Center
Sat 04:22:58 PM 30.3303 -84.2547 159° South 438 504 32,500 -700 Descending Jacksonville Center
Sat 04:23:58 PM 30.2156 -84.2508 178° South 421 484 31,500 -750 Descending Jacksonville Center
Sat 04:24:58 PM 30.0986 -84.2467 178° South 421 484 31,000 -250 Descending Jacksonville Center
Sat 04:25:58 PM 29.9817 -84.2331 174° South 421 484 31,000  Level Jacksonville Center
Sat 04:26:58 PM 29.8889 -84.1336 137° Southeast 403 464 31,000  Level Jacksonville Center
Sat 04:27:58 PM 29.8442 -83.9844 109° East 436 502 31,000  Level Jacksonville Center
Sat 04:28:58 PM 29.7658 -83.8639 127° Southeast 450 518 31,000 -400 Level Jacksonville Center
Sat 04:29:58 PM 29.6619 -83.7961 150° Southeast 450 518 30,200 -1,000 Descending Jacksonville Center
Sat 04:30:58 PM 29.5497 -83.7233 151° Southeast 470 541 29,000 -1,150 Descending Jacksonville Center
Sat 04:31:58 PM 29.4417 -83.6533 151° Southeast 459 528 27,900 -1,050 Descending Jacksonville Center
Sat 04:32:58 PM 29.3336 -83.5833 151° Southeast 454 522 26,900 -500 Descending Jacksonville Center
Sat 04:33:58 PM 29.2358 -83.5208 151° Southeast 441 507 26,900 -400 Level Jacksonville Center
Sat 04:34:58 PM 29.1381 -83.4583 151° Southeast 412 474 26,100 -1,400 Descending Jacksonville Center
Sat 04:35:58 PM 29.0400 -83.3961 151° Southeast 406 467 24,100 -1,500 Descending Jacksonville Center
Sat 04:36:58 PM 28.9442 -83.3364 151° Southeast 406 467 23,100 -1,500 Descending Jacksonville Center
Sat 04:37:58 PM 28.8528 -83.2789 151° Southeast 390 449 21,100 -2,200 Descending Jacksonville Center
Sat 04:38:58 PM 28.7672 -83.2219 150° Southeast 375 432 18,700 -2,300 Descending Jacksonville Center
Sat 04:39:58 PM 28.6797 -83.1694 152° Southeast 364 419 16,500 -1,950 Descending Jacksonville Center
Sat 04:40:58 PM 28.5942 -83.1125 150° Southeast 354 407 14,800 -1,533 Descending Jacksonville Center
Sat 04:42:15 PM 28.4833 -83.0500 154° Southeast 333 383 13,000 -788 Descending Tampa TRACON
Sat 04:43:15 PM 28.4000 -83.0000 152° Southeast 326 375 13,000 -942 Level Tampa TRACON
Sat 04:44:16 PM 28.3333 -82.9333 139° Southeast 329 379 11,100 -1,985 Descending Tampa TRACON
Sat 04:45:28 PM 28.2500 -82.8667 145° Southeast 319 367 8,600 -1,924 Descending Tampa TRACON
Sat 04:46:27 PM 28.1667 -82.8000 145° Southeast 308 354 6,900 -1,900 Descending Tampa TRACON
Sat 04:47:28 PM 28.1167 -82.7500 139° Southeast 261 300 4,800 -2,037 Descending Tampa TRACON
Sat 04:48:16 PM 28.0667 -82.7167 150° Southeast 239 275 3,200 -1,556 Descending Tampa TRACON
Sat 04:49:16 PM 28.0333 -82.6833 139° Southeast 164 189 2,000 -952 Descending Tampa TRACON
Sat 04:50:22 PM 27.9833 -82.6833 180° South 101 116 1,200 -619 Descending Tampa TRACON
Sat 04:51:22 PM 27.9667 -82.7000 221° Southwest 110 127 700 -500 Descending Tampa TRACON

Login

Don't have an account? Register now (free) for customized features, flight alerts, and more!